createdAt,value
2019-02-28T00:02:00.639Z,12.50
2019-02-28T00:04:32.106Z,11.90
2019-02-28T00:06:57.089Z,12.40
2019-02-28T00:09:25.658Z,12.57
2019-02-28T00:11:52.435Z,12.53
2019-02-28T00:14:19.167Z,13.67
2019-02-28T00:16:45.950Z,13.07
2019-02-28T00:19:12.825Z,12.50
2019-02-28T00:21:40.613Z,13.43
2019-02-28T00:24:08.408Z,13.20
2019-02-28T00:26:35.301Z,12.53
2019-02-28T00:29:02.029Z,12.60
2019-02-28T00:31:41.985Z,13.57
2019-02-28T00:34:08.807Z,13.47
2019-02-28T00:36:35.531Z,14.43
2019-02-28T00:41:42.913Z,13.67
2019-02-28T00:44:06.561Z,13.60
2019-02-28T00:46:33.795Z,13.50
2019-02-28T00:49:00.869Z,13.13
2019-02-28T00:51:29.768Z,12.80
2019-02-28T00:53:56.206Z,13.30
2019-02-28T00:56:23.169Z,13.00
2019-02-28T00:58:49.812Z,13.63
2019-02-28T01:01:16.802Z,13.40
2019-02-28T01:03:43.654Z,13.27
2019-02-28T01:06:10.669Z,12.67
2019-02-28T01:08:39.372Z,12.53
2019-02-28T01:11:06.149Z,13.10
2019-02-28T01:13:32.883Z,13.23
2019-02-28T01:15:59.775Z,13.03
2019-02-28T01:18:27.042Z,12.03
2019-02-28T01:20:54.061Z,12.57
2019-02-28T01:23:20.972Z,13.80
2019-02-28T01:25:47.927Z,12.30
2019-02-28T01:28:14.656Z,13.23
2019-02-28T01:30:41.373Z,13.03
2019-02-28T01:33:24.581Z,12.37
2019-02-28T01:35:49.641Z,12.10
2019-02-28T01:38:16.372Z,12.53
2019-02-28T01:40:43.245Z,13.20
2019-02-28T01:43:10.467Z,12.27
2019-02-28T01:45:37.213Z,13.27
2019-02-28T01:48:04.116Z,12.17
2019-02-28T01:50:30.947Z,11.57
2019-02-28T01:52:58.192Z,11.93
2019-02-28T01:55:25.181Z,11.03
2019-02-28T01:57:51.802Z,11.13
2019-02-28T02:00:18.534Z,11.27
2019-02-28T02:02:45.313Z,11.37
2019-02-28T02:05:12.244Z,10.93
2019-02-28T02:07:39.549Z,11.40
2019-02-28T02:12:47.312Z,11.63
2019-02-28T02:15:16.795Z,10.27
2019-02-28T02:17:42.709Z,10.83
2019-02-28T02:20:09.723Z,10.73
2019-02-28T02:22:36.444Z,10.23
2019-02-28T02:25:04.247Z,10.30
2019-02-28T02:27:32.533Z,9.97
2019-02-28T02:29:59.887Z,10.13
2019-02-28T02:32:26.980Z,10.97
2019-02-28T02:35:08.336Z,10.13
2019-02-28T02:37:35.144Z,9.93
2019-02-28T02:40:01.894Z,9.43
2019-02-28T02:42:28.940Z,10.00
2019-02-28T02:44:55.670Z,9.60
2019-02-28T02:47:22.684Z,10.37
2019-02-28T02:49:56.097Z,9.60
2019-02-28T02:52:25.879Z,9.77
2019-02-28T02:54:47.127Z,9.93
2019-02-28T02:57:15.642Z,9.27
2019-02-28T02:59:43.174Z,9.37
2019-02-28T03:02:10.206Z,9.40
2019-02-28T03:04:58.547Z,10.00
2019-02-28T03:07:25.300Z,9.33
2019-02-28T03:09:52.441Z,9.63
2019-02-28T03:12:19.150Z,9.60
2019-02-28T03:14:48.685Z,9.83
2019-02-28T03:19:43.510Z,9.83
2019-02-28T03:22:10.513Z,9.20
2019-02-28T03:24:37.141Z,8.60
2019-02-28T03:27:03.992Z,9.23
2019-02-28T03:29:30.778Z,9.20
2019-02-28T03:31:59.564Z,9.53
2019-02-28T03:34:26.377Z,9.87
2019-02-28T03:36:57.054Z,9.33
2019-02-28T03:39:24.496Z,9.60
2019-02-28T03:41:52.938Z,9.43
2019-02-28T03:44:21.683Z,9.60
2019-02-28T03:46:49.454Z,10.03
2019-02-28T03:49:17.028Z,8.83
2019-02-28T03:51:44.607Z,9.57
2019-02-28T03:54:11.644Z,9.63
2019-02-28T03:56:38.735Z,9.47
2019-02-28T03:59:05.980Z,10.03
2019-02-28T04:01:33.593Z,8.80
2019-02-28T04:04:48.694Z,9.70
2019-02-28T04:07:15.558Z,10.10
2019-02-28T04:09:43.786Z,9.80
2019-02-28T04:12:18.103Z,9.80
2019-02-28T04:14:44.804Z,10.20
2019-02-28T04:17:11.896Z,10.77
2019-02-28T04:19:38.971Z,10.17
2019-02-28T04:22:05.867Z,10.37
2019-02-28T04:24:52.498Z,9.80
2019-02-28T04:27:19.880Z,10.20
2019-02-28T04:29:47.317Z,11.10
2019-02-28T04:32:14.994Z,10.80
2019-02-28T04:34:48.533Z,11.50
2019-02-28T04:37:11.245Z,11.10
2019-02-28T04:39:39.031Z,11.57
2019-02-28T04:42:06.124Z,10.90
2019-02-28T04:44:34.562Z,11.73
2019-02-28T04:47:03.460Z,10.93
2019-02-28T04:49:30.555Z,12.03
2019-02-28T04:51:57.632Z,12.17
2019-02-28T04:54:27.903Z,12.30
2019-02-28T04:56:54.079Z,12.03
2019-02-28T04:59:21.026Z,11.40
2019-02-28T05:01:48.153Z,12.80
2019-02-28T05:04:14.773Z,14.27
2019-02-28T05:06:41.611Z,14.03
2019-02-28T05:09:10.738Z,13.70
2019-02-28T05:11:37.429Z,13.40
2019-02-28T05:14:04.165Z,13.83
2019-02-28T05:16:31.531Z,13.70
2019-02-28T05:19:17.784Z,15.27
2019-02-28T05:21:44.674Z,14.53
2019-02-28T05:24:11.577Z,14.50
2019-02-28T05:26:38.454Z,14.73
2019-02-28T05:29:05.993Z,16.70
2019-02-28T05:31:32.760Z,16.20
2019-02-28T05:33:59.428Z,16.60
2019-02-28T05:36:26.362Z,16.73
2019-02-28T05:38:53.539Z,15.20
2019-02-28T05:41:22.537Z,16.97
2019-02-28T05:43:49.467Z,15.93
2019-02-28T05:46:16.142Z,15.77
2019-02-28T05:49:02.906Z,18.23
2019-02-28T05:51:29.865Z,18.00
2019-02-28T05:54:17.223Z,17.17
2019-02-28T05:56:45.443Z,18.20
2019-02-28T05:59:13.195Z,17.50
2019-02-28T06:01:40.386Z,17.67
2019-02-28T06:04:07.275Z,17.57
2019-02-28T06:06:34.463Z,16.40
2019-02-28T06:09:01.284Z,20.23
2019-02-28T06:11:28.072Z,22.03
2019-02-28T06:13:54.878Z,19.97
2019-02-28T06:16:21.745Z,20.33
2019-02-28T06:18:48.385Z,20.40
2019-02-28T06:21:15.135Z,21.03
2019-02-28T06:26:15.357Z,19.13
2019-02-28T06:28:42.833Z,19.17
2019-02-28T06:31:09.477Z,21.93
2019-02-28T06:33:36.522Z,23.47
2019-02-28T06:36:04.640Z,24.70
2019-02-28T06:38:32.300Z,24.33
2019-02-28T06:41:12.351Z,25.97
2019-02-28T06:43:39.525Z,24.40
2019-02-28T06:46:08.478Z,22.93
2019-02-28T06:51:08.839Z,26.03
2019-02-28T06:56:19.289Z,29.23
2019-02-28T06:58:45.564Z,28.43
2019-02-28T07:01:12.304Z,30.23
2019-02-28T07:03:39.861Z,30.33
2019-02-28T07:06:08.110Z,31.27
2019-02-28T07:08:35.580Z,31.40
2019-02-28T07:11:02.778Z,30.83
2019-02-28T07:13:29.890Z,28.80
2019-02-28T07:15:59.086Z,31.40
2019-02-28T07:18:26.713Z,29.70
2019-02-28T07:20:53.794Z,32.13
2019-02-28T07:23:22.259Z,31.33
2019-02-28T07:25:50.094Z,30.83
2019-02-28T07:28:17.529Z,30.73
2019-02-28T07:30:44.646Z,30.43
2019-02-28T07:33:11.901Z,30.23
2019-02-28T07:35:38.998Z,31.43
2019-02-28T07:38:06.268Z,32.93
2019-02-28T07:40:33.970Z,34.07
2019-02-28T07:43:01.533Z,33.00
2019-02-28T07:45:29.675Z,32.70
2019-02-28T07:47:58.099Z,36.17
2019-02-28T07:50:25.929Z,33.37
2019-02-28T07:52:53.244Z,32.80
2019-02-28T07:55:20.514Z,33.17
2019-02-28T07:57:51.188Z,34.00
2019-02-28T08:00:18.513Z,35.37
2019-02-28T08:05:20.180Z,34.97
2019-02-28T08:07:51.816Z,34.50
2019-02-28T08:10:17.054Z,35.27
2019-02-28T08:12:43.800Z,36.17
2019-02-28T08:15:13.728Z,36.33
2019-02-28T08:17:43.933Z,35.23
2019-02-28T08:20:09.658Z,33.60
2019-02-28T08:22:36.499Z,35.57
2019-02-28T08:25:03.506Z,36.67
2019-02-28T08:27:30.549Z,34.17
2019-02-28T08:29:57.298Z,34.63
2019-02-28T08:32:24.289Z,37.33
2019-02-28T08:34:51.348Z,37.23
2019-02-28T08:37:19.055Z,36.20
2019-02-28T08:39:46.783Z,37.70
2019-02-28T08:42:13.531Z,36.30
2019-02-28T08:44:58.049Z,36.73
2019-02-28T08:47:22.019Z,38.47
2019-02-28T08:49:48.799Z,36.40
2019-02-28T08:52:16.059Z,39.10
2019-02-28T08:54:43.557Z,38.73
2019-02-28T08:57:10.490Z,37.20
2019-02-28T08:59:37.610Z,38.93
2019-02-28T09:02:04.516Z,40.43
2019-02-28T09:04:31.143Z,39.80
2019-02-28T09:06:58.034Z,39.93
2019-02-28T09:09:25.155Z,39.67
2019-02-28T09:11:53.158Z,40.80
2019-02-28T09:14:21.711Z,39.10
2019-02-28T09:16:48.734Z,39.30
2019-02-28T09:19:15.760Z,44.67
2019-02-28T09:21:42.867Z,41.07
2019-02-28T09:24:12.719Z,39.40
2019-02-28T09:26:38.383Z,40.57
2019-02-28T09:29:05.178Z,40.77
2019-02-28T09:31:32.021Z,39.00
2019-02-28T09:33:59.818Z,44.30
2019-02-28T09:36:28.091Z,40.60
2019-02-28T09:38:57.218Z,41.20
2019-02-28T09:41:24.390Z,41.67
2019-02-28T09:43:51.185Z,43.17
2019-02-28T09:46:18.842Z,41.63
2019-02-28T09:48:47.678Z,37.57
2019-02-28T09:51:15.006Z,37.50
2019-02-28T09:53:42.513Z,40.47
2019-02-28T09:56:10.503Z,38.17
2019-02-28T09:58:39.715Z,38.97
2019-02-28T10:01:06.951Z,41.30
2019-02-28T10:03:35.194Z,37.90
2019-02-28T10:06:02.392Z,38.80
2019-02-28T10:08:29.534Z,37.53
2019-02-28T10:10:57.030Z,40.00
2019-02-28T10:13:25.813Z,38.47
2019-02-28T10:15:53.914Z,37.37
2019-02-28T10:18:21.088Z,37.10
2019-02-28T10:20:48.236Z,37.67
2019-02-28T10:23:18.376Z,36.93
2019-02-28T10:25:44.171Z,38.00
2019-02-28T10:28:10.980Z,38.93
2019-02-28T10:30:37.756Z,38.23
2019-02-28T10:33:04.801Z,37.07
2019-02-28T10:35:33.468Z,36.03
2019-02-28T10:38:00.844Z,37.17
2019-02-28T10:40:28.333Z,36.53
2019-02-28T10:42:55.638Z,37.57
2019-02-28T10:45:22.748Z,36.00
2019-02-28T10:48:03.947Z,36.33
2019-02-28T10:50:33.274Z,36.00
2019-02-28T10:53:04.256Z,36.23
2019-02-28T10:55:29.736Z,35.70
2019-02-28T10:57:56.847Z,35.43
2019-02-28T11:00:29.426Z,35.23
2019-02-28T11:02:57.752Z,35.60
2019-02-28T11:05:53.407Z,36.77
2019-02-28T11:08:19.035Z,35.40
2019-02-28T11:10:46.136Z,35.43
2019-02-28T11:13:14.790Z,35.60
2019-02-28T11:15:47.933Z,37.53
2019-02-28T11:18:11.490Z,35.93
2019-02-28T11:20:39.441Z,37.10
2019-02-28T11:23:07.779Z,34.90
2019-02-28T11:25:36.376Z,35.90
2019-02-28T11:28:03.584Z,36.73
2019-02-28T11:30:30.596Z,35.33
2019-02-28T11:33:03.049Z,36.00
2019-02-28T11:35:26.638Z,34.17
2019-02-28T11:37:53.863Z,36.57
2019-02-28T11:40:43.911Z,35.77
2019-02-28T11:43:52.633Z,37.10
2019-02-28T11:46:19.368Z,35.77
2019-02-28T11:48:59.891Z,36.33
2019-02-28T11:51:27.403Z,36.70
2019-02-28T11:53:54.526Z,34.53
2019-02-28T11:56:22.180Z,35.47
2019-02-28T11:58:51.755Z,36.60
2019-02-28T12:01:19.056Z,35.87
2019-02-28T12:03:46.703Z,33.70
2019-02-28T12:06:14.018Z,37.07
2019-02-28T12:08:41.595Z,37.20
2019-02-28T12:11:10.220Z,34.77
2019-02-28T12:13:37.365Z,34.13
2019-02-28T12:16:04.521Z,34.27
2019-02-28T12:18:31.707Z,36.07
2019-02-28T12:21:02.100Z,34.90
2019-02-28T12:23:28.366Z,34.10
2019-02-28T12:25:55.536Z,33.40
2019-02-28T12:28:23.048Z,33.20
2019-02-28T12:30:50.184Z,33.67
2019-02-28T12:33:37.035Z,34.10
2019-02-28T12:36:04.290Z,31.37
2019-02-28T12:38:31.440Z,33.37
2019-02-28T12:40:58.297Z,33.23
2019-02-28T12:43:25.666Z,32.90
2019-02-28T12:45:53.589Z,34.13
2019-02-28T12:48:21.336Z,33.07
2019-02-28T12:51:02.282Z,33.00
2019-02-28T12:53:29.516Z,32.77
2019-02-28T12:55:56.262Z,32.97
2019-02-28T12:58:23.525Z,33.23
2019-02-28T13:00:50.634Z,35.90
2019-02-28T13:03:20.292Z,38.83
2019-02-28T13:05:48.105Z,35.60
2019-02-28T13:08:15.479Z,36.23
2019-02-28T13:10:43.479Z,37.27
2019-02-28T13:13:11.169Z,34.23
2019-02-28T13:15:38.338Z,34.60
2019-02-28T13:18:08.862Z,35.33
2019-02-28T13:20:36.414Z,35.63
2019-02-28T13:23:03.998Z,35.70
2019-02-28T13:25:31.071Z,35.80
2019-02-28T13:27:58.165Z,35.53
2019-02-28T13:30:25.424Z,34.20
2019-02-28T13:32:52.936Z,35.30
2019-02-28T13:35:22.489Z,35.53
2019-02-28T13:37:49.711Z,37.57
2019-02-28T13:40:16.847Z,39.23
2019-02-28T13:42:43.991Z,34.97
2019-02-28T13:45:16.211Z,54.83
2019-02-28T13:47:42.019Z,34.93
2019-02-28T13:50:17.310Z,36.10
2019-02-28T13:52:44.670Z,39.30
2019-02-28T13:55:14.199Z,34.83
2019-02-28T13:57:43.678Z,37.07
2019-02-28T14:00:53.092Z,48.07
2019-02-28T14:03:20.241Z,39.27
2019-02-28T14:05:47.758Z,35.33
2019-02-28T14:08:15.181Z,40.10
2019-02-28T14:10:42.852Z,44.07
2019-02-28T14:13:09.998Z,44.43
2019-02-28T14:15:39.479Z,37.63
2019-02-28T14:18:07.563Z,38.23
2019-02-28T14:20:35.649Z,41.23
2019-02-28T14:23:02.725Z,43.90
2019-02-28T14:25:29.705Z,38.70
2019-02-28T14:27:56.878Z,44.07
2019-02-28T14:30:26.108Z,50.33
2019-02-28T14:32:53.589Z,37.20
2019-02-28T14:35:22.891Z,38.00
2019-02-28T14:37:51.886Z,56.47
2019-02-28T14:40:19.430Z,48.43
2019-02-28T14:42:46.381Z,38.43
2019-02-28T14:45:14.237Z,37.43
2019-02-28T14:47:42.611Z,41.90
2019-02-28T14:50:10.379Z,35.57
2019-02-28T14:52:39.404Z,36.50
2019-02-28T14:55:08.837Z,33.30
2019-02-28T14:57:35.927Z,34.33
2019-02-28T15:03:02.772Z,36.43
2019-02-28T15:05:28.974Z,33.67
2019-02-28T15:08:36.891Z,33.30
2019-02-28T15:11:06.477Z,33.73
2019-02-28T15:13:33.481Z,32.80
2019-02-28T15:16:01.989Z,33.93
2019-02-28T15:18:28.949Z,33.80
2019-02-28T15:20:55.691Z,34.37
2019-02-28T15:23:22.518Z,34.20
2019-02-28T15:25:50.810Z,34.27
2019-02-28T15:28:18.838Z,32.20
2019-02-28T15:30:46.045Z,33.10
2019-02-28T15:33:13.997Z,32.50
2019-02-28T15:35:41.897Z,31.10
2019-02-28T15:38:10.424Z,32.43
2019-02-28T15:40:40.479Z,33.80
2019-02-28T15:43:07.223Z,33.73
2019-02-28T15:45:36.135Z,33.47
2019-02-28T15:48:22.584Z,34.67
2019-02-28T15:50:51.815Z,33.93
2019-02-28T15:53:18.846Z,34.43
2019-02-28T15:55:46.209Z,33.30
2019-02-28T15:58:13.885Z,34.17
2019-02-28T16:00:41.350Z,34.53
2019-02-28T16:03:09.024Z,36.03
2019-02-28T16:05:42.619Z,37.10
2019-02-28T16:08:09.362Z,35.67
2019-02-28T16:10:53.799Z,36.13
2019-02-28T16:13:22.646Z,36.37
2019-02-28T16:15:50.293Z,35.73
2019-02-28T16:18:19.097Z,35.53
2019-02-28T16:20:46.963Z,37.03
2019-02-28T16:23:14.496Z,37.07
2019-02-28T16:25:42.050Z,36.20
2019-02-28T16:28:09.257Z,37.03
2019-02-28T16:30:36.528Z,38.83
2019-02-28T16:33:04.005Z,37.70
2019-02-28T16:35:31.457Z,36.60
2019-02-28T16:37:58.905Z,38.33
2019-02-28T16:40:27.215Z,37.50
2019-02-28T16:42:54.791Z,38.27
2019-02-28T16:45:26.465Z,39.23
2019-02-28T16:47:55.710Z,41.43
2019-02-28T16:50:22.806Z,41.00
2019-02-28T16:52:50.825Z,40.87
2019-02-28T16:55:18.168Z,40.47
2019-02-28T16:57:47.095Z,42.70
2019-02-28T17:03:44.293Z,42.77
2019-02-28T17:06:11.812Z,41.57
2019-02-28T17:11:21.078Z,42.40
2019-02-28T17:13:54.427Z,41.43
2019-02-28T17:16:41.363Z,44.27
2019-02-28T17:19:08.621Z,43.57
2019-02-28T17:21:36.722Z,44.13
2019-02-28T17:24:23.592Z,44.13
2019-02-28T17:27:10.505Z,44.07
2019-02-28T17:29:42.164Z,44.50
2019-02-28T17:32:09.547Z,45.03
2019-02-28T17:34:37.210Z,47.63
2019-02-28T17:37:25.896Z,48.57
2019-02-28T17:39:52.499Z,47.23
2019-02-28T17:42:19.248Z,47.50
2019-02-28T17:45:26.216Z,45.87
2019-02-28T17:48:42.195Z,46.90
2019-02-28T17:51:48.157Z,45.47
2019-02-28T17:54:54.219Z,45.80
2019-02-28T17:58:01.904Z,45.43
2019-02-28T18:00:48.162Z,46.93
2019-02-28T18:03:53.292Z,47.53
2019-02-28T18:06:59.170Z,46.33
2019-02-28T18:10:06.047Z,47.83
2019-02-28T18:13:12.086Z,48.60
2019-02-28T18:16:21.384Z,48.37
2019-02-28T18:19:33.027Z,50.70
2019-02-28T18:22:33.958Z,50.30
2019-02-28T18:25:14.047Z,48.97
2019-02-28T18:28:22.606Z,49.83
2019-02-28T18:31:11.587Z,51.23
2019-02-28T18:33:41.758Z,50.40
2019-02-28T18:36:12.033Z,51.27
2019-02-28T18:38:38.878Z,53.67
2019-02-28T18:41:06.591Z,51.37
2019-02-28T18:43:34.826Z,51.67
2019-02-28T18:46:01.557Z,51.63
2019-02-28T18:48:28.603Z,52.20
2019-02-28T18:50:56.230Z,52.40
2019-02-28T18:53:22.999Z,51.80
2019-02-28T18:55:50.624Z,48.17
2019-02-28T18:58:37.014Z,48.23
2019-02-28T19:01:04.253Z,49.53
2019-02-28T19:03:30.982Z,47.87
2019-02-28T19:05:57.882Z,49.07
2019-02-28T19:08:24.874Z,49.50
2019-02-28T19:10:52.351Z,50.23
2019-02-28T19:13:19.159Z,51.40
2019-02-28T19:15:46.081Z,48.10
2019-02-28T19:18:12.947Z,48.90
2019-02-28T19:20:59.311Z,48.90
2019-02-28T19:23:26.503Z,50.23
2019-02-28T19:25:53.569Z,49.00
2019-02-28T19:28:20.511Z,47.60
2019-02-28T19:30:47.913Z,48.43
2019-02-28T19:33:14.708Z,47.50
2019-02-28T19:35:41.881Z,50.17
2019-02-28T19:38:09.010Z,51.00
2019-02-28T19:40:36.101Z,49.60
2019-02-28T19:43:03.210Z,47.13
2019-02-28T19:45:30.099Z,48.70
2019-02-28T19:47:56.834Z,46.50
2019-02-28T19:50:24.089Z,46.67
2019-02-28T19:52:50.984Z,48.13
2019-02-28T19:55:17.858Z,53.40
2019-02-28T19:58:05.069Z,52.23
2019-02-28T20:00:32.146Z,51.10
2019-02-28T20:03:12.650Z,49.87
2019-02-28T20:05:39.518Z,52.80
2019-02-28T20:08:06.265Z,54.07
2019-02-28T20:10:33.247Z,53.23
2019-02-28T20:13:00.445Z,51.20
2019-02-28T20:21:11.433Z,49.43
2019-02-28T20:23:38.470Z,49.90
2019-02-28T20:26:05.239Z,48.87
2019-02-28T20:28:32.382Z,48.53
2019-02-28T20:30:59.401Z,46.80
2019-02-28T20:33:26.145Z,48.00
2019-02-28T20:35:53.553Z,46.37
2019-02-28T20:38:20.422Z,48.27
2019-02-28T20:40:47.173Z,47.07
2019-02-28T20:43:14.068Z,48.97
2019-02-28T20:45:41.191Z,45.33
2019-02-28T20:48:08.655Z,45.87
2019-02-28T20:50:37.805Z,40.87
2019-02-28T20:53:05.452Z,42.23
2019-02-28T20:55:33.708Z,41.97
2019-02-28T20:58:00.862Z,41.83
2019-02-28T21:00:28.131Z,40.00
2019-02-28T21:02:55.117Z,41.20
2019-02-28T21:05:34.316Z,41.17
2019-02-28T21:08:01.531Z,41.90
2019-02-28T21:10:28.291Z,40.13
2019-02-28T21:12:55.412Z,39.43
2019-02-28T21:15:22.265Z,40.90
2019-02-28T21:17:49.151Z,39.43
2019-02-28T21:20:16.251Z,38.50
2019-02-28T21:22:43.103Z,39.10
2019-02-28T21:25:10.368Z,38.97
2019-02-28T21:27:38.129Z,39.90
2019-02-28T21:30:11.392Z,40.23
2019-02-28T21:32:38.135Z,37.53
2019-02-28T21:35:05.460Z,37.00
2019-02-28T21:37:32.212Z,36.20
2019-02-28T21:40:00.754Z,37.00
2019-02-28T21:42:28.522Z,36.10
2019-02-28T21:44:55.812Z,35.50
2019-02-28T21:50:31.888Z,33.43
2019-02-28T21:52:58.641Z,32.73
2019-02-28T21:55:25.390Z,32.30
2019-02-28T21:57:52.542Z,32.57
2019-02-28T22:00:21.223Z,32.17
2019-02-28T22:02:48.060Z,31.03
2019-02-28T22:05:15.298Z,31.37
2019-02-28T22:07:42.127Z,31.80
2019-02-28T22:10:09.949Z,28.83
2019-02-28T22:12:37.111Z,30.60
2019-02-28T22:15:04.934Z,30.63
2019-02-28T22:17:31.785Z,29.83
2019-02-28T22:19:58.565Z,29.97
2019-02-28T22:22:25.633Z,29.20
2019-02-28T22:24:52.711Z,30.97
2019-02-28T22:27:19.794Z,30.87
2019-02-28T22:29:46.836Z,29.53
2019-02-28T22:32:24.160Z,29.33
2019-02-28T22:35:06.207Z,28.87
2019-02-28T22:37:33.332Z,27.00
2019-02-28T22:39:59.974Z,30.07
2019-02-28T22:42:26.831Z,29.73
2019-02-28T22:44:53.578Z,29.83
2019-02-28T22:47:20.592Z,29.40
2019-02-28T22:49:48.163Z,29.90
2019-02-28T22:52:15.210Z,28.43
2019-02-28T22:54:41.986Z,27.37
2019-02-28T22:57:08.823Z,27.63
2019-02-28T22:59:35.709Z,27.33
2019-02-28T23:02:02.564Z,26.20
2019-02-28T23:04:29.804Z,25.90
2019-02-28T23:06:56.556Z,26.43
2019-02-28T23:09:23.718Z,24.97
2019-02-28T23:11:50.861Z,26.20
2019-02-28T23:14:18.012Z,26.03
2019-02-28T23:16:45.070Z,24.87
2019-02-28T23:19:12.262Z,25.23
2019-02-28T23:21:39.699Z,26.70
2019-02-28T23:24:06.460Z,26.23
2019-02-28T23:27:12.641Z,27.07
2019-02-28T23:29:43.495Z,25.63
2019-02-28T23:32:49.586Z,25.23
2019-02-28T23:35:20.704Z,25.47
2019-02-28T23:37:47.803Z,25.40
2019-02-28T23:40:15.027Z,24.40
2019-02-28T23:42:42.152Z,24.77
2019-02-28T23:45:10.075Z,24.77
2019-02-28T23:47:37.425Z,24.63
2019-02-28T23:50:04.998Z,23.60
2019-02-28T23:52:32.474Z,24.17
2019-02-28T23:54:59.830Z,25.60
2019-02-28T23:57:27.284Z,25.27
2019-02-28T23:59:54.747Z,26.13
